Sarnen, Switzerland
Current Conditions -  °F | °C
As of 6:50 AM on Monday 20 Oct 2014 (Local Time) from LSZC Reporting Station
Clear Clear  
Wind Chill: 52°   Ceiling: Unl
Heat Index: 52°   Visibility: 6mi
Dew Point: 46°   Wind: 3mph
Humidity: 82%   Direction: NA
Pressure: 30.21"   Gusts: NA
Location:  46.91°N, 8.25°E
Report Text: LSZC 200450Z AUTO VRB03KT 9999 NCD 11/08 Q1023
Loading
Personal Weather Stations






























Interactive Weather Map
Tropical Storm Tracking
New forecast layout! Learn more

10-Day Weather Forecast

Advertisements
Track Severe Weather on mobile